sensor_id;sensor_type;location;lat;lon;timestamp;temperature;humidity
45868;DHT22;31582;45.490;7.860;2022-07-03T09:07:13;32.10;45.80
45868;DHT22;31582;45.490;7.860;2022-07-03T09:09:40;32.30;45.70
45868;DHT22;31582;45.490;7.860;2022-07-03T09:12:08;32.50;46.60
45868;DHT22;31582;45.490;7.860;2022-07-03T09:14:35;32.40;45.10
45868;DHT22;31582;45.490;7.860;2022-07-03T09:17:02;32.60;43.70
45868;DHT22;31582;45.490;7.860;2022-07-03T09:19:48;32.60;45.20
45868;DHT22;31582;45.490;7.860;2022-07-03T09:22:27;32.80;44.60
45868;DHT22;31582;45.490;7.860;2022-07-03T09:25:04;32.90;45.30
45868;DHT22;31582;45.490;7.860;2022-07-03T09:27:33;33.00;45.10
45868;DHT22;31582;45.490;7.860;2022-07-03T09:30:08;33.00;43.10
45868;DHT22;31582;45.490;7.860;2022-07-03T09:32:45;33.00;42.60
45868;DHT22;31582;45.490;7.860;2022-07-03T09:35:30;32.90;42.20
45868;DHT22;31582;45.490;7.860;2022-07-03T09:37:59;32.90;43.90
45868;DHT22;31582;45.490;7.860;2022-07-03T09:40:28;32.90;42.70
45868;DHT22;31582;45.490;7.860;2022-07-03T09:43:07;32.80;42.80
45868;DHT22;31582;45.490;7.860;2022-07-03T09:45:59;32.90;42.60
45868;DHT22;31582;45.490;7.860;2022-07-03T09:56:11;33.00;43.00
45868;DHT22;31582;45.490;7.860;2022-07-03T09:58:38;33.00;43.50
45868;DHT22;31582;45.490;7.860;2022-07-03T10:01:18;33.10;44.10
45868;DHT22;31582;45.490;7.860;2022-07-03T10:03:49;33.20;42.40
45868;DHT22;31582;45.490;7.860;2022-07-03T10:06:15;33.30;40.90
45868;DHT22;31582;45.490;7.860;2022-07-03T10:08:43;33.20;39.80
45868;DHT22;31582;45.490;7.860;2022-07-03T10:11:10;33.20;40.30
45868;DHT22;31582;45.490;7.860;2022-07-03T10:13:42;33.20;40.80
45868;DHT22;31582;45.490;7.860;2022-07-03T10:16:09;33.30;40.10
45868;DHT22;31582;45.490;7.860;2022-07-03T10:18:36;33.30;39.60
45868;DHT22;31582;45.490;7.860;2022-07-03T10:21:07;33.30;40.50
45868;DHT22;31582;45.490;7.860;2022-07-03T10:23:35;33.40;40.50
45868;DHT22;31582;45.490;7.860;2022-07-03T10:26:02;33.60;40.20
45868;DHT22;31582;45.490;7.860;2022-07-03T10:28:30;33.80;39.40
45868;DHT22;31582;45.490;7.860;2022-07-03T10:30:59;33.90;36.80
45868;DHT22;31582;45.490;7.860;2022-07-03T10:33:27;33.90;37.00
45868;DHT22;31582;45.490;7.860;2022-07-03T10:35:55;33.90;38.50
45868;DHT22;31582;45.490;7.860;2022-07-03T10:38:41;33.90;38.60
45868;DHT22;31582;45.490;7.860;2022-07-03T10:41:30;33.80;39.30
45868;DHT22;31582;45.490;7.860;2022-07-03T10:44:15;33.70;41.00
45868;DHT22;31582;45.490;7.860;2022-07-03T10:47:02;33.80;40.90
45868;DHT22;31582;45.490;7.860;2022-07-03T10:49:34;33.80;40.20
45868;DHT22;31582;45.490;7.860;2022-07-03T10:52:03;33.80;39.30
45868;DHT22;31582;45.490;7.860;2022-07-03T10:54:34;33.70;40.60
45868;DHT22;31582;45.490;7.860;2022-07-03T10:57:04;33.70;38.90
45868;DHT22;31582;45.490;7.860;2022-07-03T11:02:36;33.70;38.60
45868;DHT22;31582;45.490;7.860;2022-07-03T11:05:10;33.60;40.00
45868;DHT22;31582;45.490;7.860;2022-07-03T11:13:01;34.10;40.60
45868;DHT22;31582;45.490;7.860;2022-07-03T11:15:35;34.20;40.30
45868;DHT22;31582;45.490;7.860;2022-07-03T11:25:45;34.50;39.80
45868;DHT22;31582;45.490;7.860;2022-07-03T11:44:05;34.90;38.80
45868;DHT22;31582;45.490;7.860;2022-07-03T11:46:37;34.90;38.50
45868;DHT22;31582;45.490;7.860;2022-07-03T11:49:08;34.90;37.80
45868;DHT22;31582;45.490;7.860;2022-07-03T11:51:37;34.70;39.90
45868;DHT22;31582;45.490;7.860;2022-07-03T11:54:05;34.60;37.80
45868;DHT22;31582;45.490;7.860;2022-07-03T11:56:32;34.50;39.00
45868;DHT22;31582;45.490;7.860;2022-07-03T11:59:02;34.50;39.10
45868;DHT22;31582;45.490;7.860;2022-07-03T12:01:37;34.70;39.10
45868;DHT22;31582;45.490;7.860;2022-07-03T12:04:08;34.80;39.10
45868;DHT22;31582;45.490;7.860;2022-07-03T12:06:43;34.90;38.70
45868;DHT22;31582;45.490;7.860;2022-07-03T12:09:24;35.00;38.80
45868;DHT22;31582;45.490;7.860;2022-07-03T12:12:10;35.20;38.00
45868;DHT22;31582;45.490;7.860;2022-07-03T12:14:42;35.30;37.70
45868;DHT22;31582;45.490;7.860;2022-07-03T12:17:21;35.30;37.40
45868;DHT22;31582;45.490;7.860;2022-07-03T12:19:54;35.40;37.60
45868;DHT22;31582;45.490;7.860;2022-07-03T12:22:33;35.60;37.10
45868;DHT22;31582;45.490;7.860;2022-07-03T12:25:10;35.70;35.80
45868;DHT22;31582;45.490;7.860;2022-07-03T12:27:40;35.60;35.30
45868;DHT22;31582;45.490;7.860;2022-07-03T12:30:11;35.60;35.50
45868;DHT22;31582;45.490;7.860;2022-07-03T12:32:39;35.60;36.00
45868;DHT22;31582;45.490;7.860;2022-07-03T12:35:07;35.60;35.80
45868;DHT22;31582;45.490;7.860;2022-07-03T12:37:38;35.70;35.30
45868;DHT22;31582;45.490;7.860;2022-07-03T12:40:11;35.90;35.30
45868;DHT22;31582;45.490;7.860;2022-07-03T12:42:51;36.20;35.50
45868;DHT22;31582;45.490;7.860;2022-07-03T12:45:23;36.40;33.50
45868;DHT22;31582;45.490;7.860;2022-07-03T12:47:58;36.50;33.10
45868;DHT22;31582;45.490;7.860;2022-07-03T12:50:28;36.50;33.90
45868;DHT22;31582;45.490;7.860;2022-07-03T12:53:09;36.60;33.40
45868;DHT22;31582;45.490;7.860;2022-07-03T12:55:44;36.50;33.40
45868;DHT22;31582;45.490;7.860;2022-07-03T12:58:17;36.40;34.50
45868;DHT22;31582;45.490;7.860;2022-07-03T13:03:55;36.60;35.30
45868;DHT22;31582;45.490;7.860;2022-07-03T13:06:23;36.80;34.10
45868;DHT22;31582;45.490;7.860;2022-07-03T13:08:55;36.80;33.60
45868;DHT22;31582;45.490;7.860;2022-07-03T13:14:00;36.90;33.40
45868;DHT22;31582;45.490;7.860;2022-07-03T13:16:27;36.80;32.80
45868;DHT22;31582;45.490;7.860;2022-07-03T13:19:01;36.70;33.40
45868;DHT22;31582;45.490;7.860;2022-07-03T13:21:29;36.90;33.90
45868;DHT22;31582;45.490;7.860;2022-07-03T13:24:02;37.00;33.80
45868;DHT22;31582;45.490;7.860;2022-07-03T13:26:30;37.00;32.60
45868;DHT22;31582;45.490;7.860;2022-07-03T13:28:57;37.10;32.70
45868;DHT22;31582;45.490;7.860;2022-07-03T13:31:24;37.30;32.90
45868;DHT22;31582;45.490;7.860;2022-07-03T13:33:51;37.50;32.10
45868;DHT22;31582;45.490;7.860;2022-07-03T13:36:18;37.60;31.90
45868;DHT22;31582;45.490;7.860;2022-07-03T13:38:45;37.70;32.00
45868;DHT22;31582;45.490;7.860;2022-07-03T13:41:12;37.80;32.20
45868;DHT22;31582;45.490;7.860;2022-07-03T13:43:39;37.80;30.80
45868;DHT22;31582;45.490;7.860;2022-07-03T13:46:06;37.60;30.80
45868;DHT22;31582;45.490;7.860;2022-07-03T13:48:33;37.70;31.30
45868;DHT22;31582;45.490;7.860;2022-07-03T13:51:00;37.60;30.40
45868;DHT22;31582;45.490;7.860;2022-07-03T13:53:28;37.70;30.70
45868;DHT22;31582;45.490;7.860;2022-07-03T13:55:55;37.70;29.90
45868;DHT22;31582;45.490;7.860;2022-07-03T13:58:23;37.80;30.10
45868;DHT22;31582;45.490;7.860;2022-07-03T14:00:50;37.90;30.00
45868;DHT22;31582;45.490;7.860;2022-07-03T14:03:17;37.80;27.40
45868;DHT22;31582;45.490;7.860;2022-07-03T14:05:44;37.80;28.60
45868;DHT22;31582;45.490;7.860;2022-07-03T14:08:11;37.90;29.50
45868;DHT22;31582;45.490;7.860;2022-07-03T14:10:38;38.00;28.80
45868;DHT22;31582;45.490;7.860;2022-07-03T14:13:05;38.10;30.00
45868;DHT22;31582;45.490;7.860;2022-07-03T14:15:33;38.20;29.70
45868;DHT22;31582;45.490;7.860;2022-07-03T14:18:00;38.30;29.40
45868;DHT22;31582;45.490;7.860;2022-07-03T14:20:28;38.50;29.10
45868;DHT22;31582;45.490;7.860;2022-07-03T14:22:56;38.40;29.10
45868;DHT22;31582;45.490;7.860;2022-07-03T14:25:23;38.40;29.80
45868;DHT22;31582;45.490;7.860;2022-07-03T14:27:50;38.50;30.30
45868;DHT22;31582;45.490;7.860;2022-07-03T14:30:35;38.70;30.70
45868;DHT22;31582;45.490;7.860;2022-07-03T14:33:21;38.90;30.70
45868;DHT22;31582;45.490;7.860;2022-07-03T14:35:47;39.00;31.40
45868;DHT22;31582;45.490;7.860;2022-07-03T14:38:14;39.10;30.70
45868;DHT22;31582;45.490;7.860;2022-07-03T14:40:41;39.10;29.60
45868;DHT22;31582;45.490;7.860;2022-07-03T14:43:08;39.10;29.10
45868;DHT22;31582;45.490;7.860;2022-07-03T14:45:35;39.00;29.30
45868;DHT22;31582;45.490;7.860;2022-07-03T14:48:07;39.10;29.40
45868;DHT22;31582;45.490;7.860;2022-07-03T14:50:35;39.10;29.70
45868;DHT22;31582;45.490;7.860;2022-07-03T14:53:05;39.20;29.50
45868;DHT22;31582;45.490;7.860;2022-07-03T14:55:37;39.10;30.00
45868;DHT22;31582;45.490;7.860;2022-07-03T14:58:18;39.00;29.70
45868;DHT22;31582;45.490;7.860;2022-07-03T15:00:51;39.10;29.60
45868;DHT22;31582;45.490;7.860;2022-07-03T15:03:33;39.20;29.40
45868;DHT22;31582;45.490;7.860;2022-07-03T15:06:04;39.40;29.50
45868;DHT22;31582;45.490;7.860;2022-07-03T15:11:18;39.70;30.00
45868;DHT22;31582;45.490;7.860;2022-07-03T15:14:05;39.70;29.20
45868;DHT22;31582;45.490;7.860;2022-07-03T15:16:33;39.70;28.90
45868;DHT22;31582;45.490;7.860;2022-07-03T15:19:01;39.80;28.90
45868;DHT22;31582;45.490;7.860;2022-07-03T15:21:30;39.80;28.70
45868;DHT22;31582;45.490;7.860;2022-07-03T15:24:02;39.90;29.10
45868;DHT22;31582;45.490;7.860;2022-07-03T15:26:31;39.90;29.10
45868;DHT22;31582;45.490;7.860;2022-07-03T15:29:00;39.80;29.00
45868;DHT22;31582;45.490;7.860;2022-07-03T15:31:28;39.80;29.00
45868;DHT22;31582;45.490;7.860;2022-07-03T15:33:56;39.80;28.90
45868;DHT22;31582;45.490;7.860;2022-07-03T15:36:26;39.80;28.60
45868;DHT22;31582;45.490;7.860;2022-07-03T15:39:03;39.60;28.30
45868;DHT22;31582;45.490;7.860;2022-07-03T15:44:33;39.30;28.50
45868;DHT22;31582;45.490;7.860;2022-07-03T15:49:58;39.30;29.30
45868;DHT22;31582;45.490;7.860;2022-07-03T15:52:28;39.40;29.60
45868;DHT22;31582;45.490;7.860;2022-07-03T15:54:58;39.50;29.60
45868;DHT22;31582;45.490;7.860;2022-07-03T15:57:42;39.70;29.60
45868;DHT22;31582;45.490;7.860;2022-07-03T16:00:13;39.90;29.60
45868;DHT22;31582;45.490;7.860;2022-07-03T16:05:18;40.30;29.50
45868;DHT22;31582;45.490;7.860;2022-07-03T16:07:47;40.30;29.20
45868;DHT22;31582;45.490;7.860;2022-07-03T16:10:18;40.40;28.90
45868;DHT22;31582;45.490;7.860;2022-07-03T16:12:46;40.40;29.40
45868;DHT22;31582;45.490;7.860;2022-07-03T16:15:16;40.50;29.50
45868;DHT22;31582;45.490;7.860;2022-07-03T16:17:45;40.50;29.10
45868;DHT22;31582;45.490;7.860;2022-07-03T16:20:14;40.40;29.00
45868;DHT22;31582;45.490;7.860;2022-07-03T16:22:41;40.40;29.50
45868;DHT22;31582;45.490;7.860;2022-07-03T16:25:09;40.30;29.70
45868;DHT22;31582;45.490;7.860;2022-07-03T16:27:36;40.20;29.90
45868;DHT22;31582;45.490;7.860;2022-07-03T16:30:04;40.10;29.50
45868;DHT22;31582;45.490;7.860;2022-07-03T16:32:39;39.90;29.80
45868;DHT22;31582;45.490;7.860;2022-07-03T16:37:56;39.40;30.30
45868;DHT22;31582;45.490;7.860;2022-07-03T16:40:26;39.20;31.00
45868;DHT22;31582;45.490;7.860;2022-07-03T16:42:53;39.10;31.00
45868;DHT22;31582;45.490;7.860;2022-07-03T16:45:28;39.00;30.60
45868;DHT22;31582;45.490;7.860;2022-07-03T16:48:08;38.90;30.90
45868;DHT22;31582;45.490;7.860;2022-07-03T16:50:36;38.80;31.20
45868;DHT22;31582;45.490;7.860;2022-07-03T16:53:06;38.60;31.70
45868;DHT22;31582;45.490;7.860;2022-07-03T16:55:33;38.50;32.10
45868;DHT22;31582;45.490;7.860;2022-07-03T16:58:01;38.20;32.50
45868;DHT22;31582;45.490;7.860;2022-07-03T17:00:29;38.00;33.20
45868;DHT22;31582;45.490;7.860;2022-07-03T17:02:56;37.90;34.00
45868;DHT22;31582;45.490;7.860;2022-07-03T17:05:25;37.60;34.30
45868;DHT22;31582;45.490;7.860;2022-07-03T17:07:54;37.50;35.60
45868;DHT22;31582;45.490;7.860;2022-07-03T17:10:22;37.30;36.40
45868;DHT22;31582;45.490;7.860;2022-07-03T17:12:53;37.00;40.10
45868;DHT22;31582;45.490;7.860;2022-07-03T17:15:22;36.70;42.00
45868;DHT22;31582;45.490;7.860;2022-07-03T17:17:57;36.40;42.40
45868;DHT22;31582;45.490;7.860;2022-07-03T17:20:27;36.10;43.50
45868;DHT22;31582;45.490;7.860;2022-07-03T17:23:22;35.90;44.50
45868;DHT22;31582;45.490;7.860;2022-07-03T17:26:01;35.60;45.50
45868;DHT22;31582;45.490;7.860;2022-07-03T17:28:47;35.40;45.10
45868;DHT22;31582;45.490;7.860;2022-07-03T17:31:19;35.10;44.80
45868;DHT22;31582;45.490;7.860;2022-07-03T17:33:59;34.90;45.40
45868;DHT22;31582;45.490;7.860;2022-07-03T17:36:27;34.70;45.70
45868;DHT22;31582;45.490;7.860;2022-07-03T17:38:56;34.60;45.10
45868;DHT22;31582;45.490;7.860;2022-07-03T17:41:29;34.40;44.80
45868;DHT22;31582;45.490;7.860;2022-07-03T17:43:57;34.30;44.90
45868;DHT22;31582;45.490;7.860;2022-07-03T17:46:24;34.20;45.60
45868;DHT22;31582;45.490;7.860;2022-07-03T17:48:52;34.10;46.30
45868;DHT22;31582;45.490;7.860;2022-07-03T17:51:21;34.00;46.90
45868;DHT22;31582;45.490;7.860;2022-07-03T17:53:49;33.90;47.40
45868;DHT22;31582;45.490;7.860;2022-07-03T17:56:21;33.80;46.90
45868;DHT22;31582;45.490;7.860;2022-07-03T17:58:49;33.70;46.00
45868;DHT22;31582;45.490;7.860;2022-07-03T18:01:23;33.60;45.10
45868;DHT22;31582;45.490;7.860;2022-07-03T18:03:50;33.50;45.10
45868;DHT22;31582;45.490;7.860;2022-07-03T18:06:20;33.40;45.30
45868;DHT22;31582;45.490;7.860;2022-07-03T18:11:50;33.30;46.00
45868;DHT22;31582;45.490;7.860;2022-07-03T18:15:02;33.20;46.50
45868;DHT22;31582;45.490;7.860;2022-07-03T18:17:34;33.00;47.10
45868;DHT22;31582;45.490;7.860;2022-07-03T18:20:02;33.00;47.60
45868;DHT22;31582;45.490;7.860;2022-07-03T18:22:29;32.90;47.70
45868;DHT22;31582;45.490;7.860;2022-07-03T18:25:02;32.80;48.40
45868;DHT22;31582;45.490;7.860;2022-07-03T18:27:30;32.70;48.30
45868;DHT22;31582;45.490;7.860;2022-07-03T18:29:59;32.60;48.20
45868;DHT22;31582;45.490;7.860;2022-07-03T18:32:26;32.60;48.60
45868;DHT22;31582;45.490;7.860;2022-07-03T18:34:55;32.50;48.80
45868;DHT22;31582;45.490;7.860;2022-07-03T18:37:23;32.40;49.30
45868;DHT22;31582;45.490;7.860;2022-07-03T18:39:50;32.30;50.80
45868;DHT22;31582;45.490;7.860;2022-07-03T18:42:19;32.10;51.70
45868;DHT22;31582;45.490;7.860;2022-07-03T18:44:46;32.00;52.00
45868;DHT22;31582;45.490;7.860;2022-07-03T18:47:14;31.90;52.20
45868;DHT22;31582;45.490;7.860;2022-07-03T18:49:41;31.80;52.50
45868;DHT22;31582;45.490;7.860;2022-07-03T18:52:21;31.70;52.50
45868;DHT22;31582;45.490;7.860;2022-07-03T18:55:19;31.60;52.50
45868;DHT22;31582;45.490;7.860;2022-07-03T18:57:51;31.50;52.60
45868;DHT22;31582;45.490;7.860;2022-07-03T19:00:28;31.40;52.30
45868;DHT22;31582;45.490;7.860;2022-07-03T19:03:13;31.30;52.60
45868;DHT22;31582;45.490;7.860;2022-07-03T19:05:53;31.20;52.50
45868;DHT22;31582;45.490;7.860;2022-07-03T19:11:12;31.10;53.00
45868;DHT22;31582;45.490;7.860;2022-07-03T19:13:56;31.00;53.00
45868;DHT22;31582;45.490;7.860;2022-07-03T19:16:26;30.90;53.50
45868;DHT22;31582;45.490;7.860;2022-07-03T19:18:59;30.70;53.80
45868;DHT22;31582;45.490;7.860;2022-07-03T19:21:26;30.60;53.90
45868;DHT22;31582;45.490;7.860;2022-07-03T19:23:54;30.50;54.10
45868;DHT22;31582;45.490;7.860;2022-07-03T19:26:20;30.30;54.50
45868;DHT22;31582;45.490;7.860;2022-07-03T19:28:47;30.20;55.30
45868;DHT22;31582;45.490;7.860;2022-07-03T19:31:16;30.10;55.70
45868;DHT22;31582;45.490;7.860;2022-07-03T19:33:43;30.00;56.60
45868;DHT22;31582;45.490;7.860;2022-07-03T19:36:10;29.90;56.90
45868;DHT22;31582;45.490;7.860;2022-07-03T19:38:37;29.80;57.00
45868;DHT22;31582;45.490;7.860;2022-07-03T19:41:04;29.70;57.00
45868;DHT22;31582;45.490;7.860;2022-07-03T19:43:31;29.60;57.10
45868;DHT22;31582;45.490;7.860;2022-07-03T19:45:58;29.50;57.10
45868;DHT22;31582;45.490;7.860;2022-07-03T19:48:25;29.40;58.10
45868;DHT22;31582;45.490;7.860;2022-07-03T19:50:52;29.30;57.50
45868;DHT22;31582;45.490;7.860;2022-07-03T19:53:19;29.20;56.40
45868;DHT22;31582;45.490;7.860;2022-07-03T19:55:45;29.10;56.00
45868;DHT22;31582;45.490;7.860;2022-07-03T19:58:12;29.00;55.90
45868;DHT22;31582;45.490;7.860;2022-07-03T20:00:39;28.90;56.20
45868;DHT22;31582;45.490;7.860;2022-07-03T20:03:06;28.70;55.90
45868;DHT22;31582;45.490;7.860;2022-07-03T20:05:34;28.70;56.50
45868;DHT22;31582;45.490;7.860;2022-07-03T20:08:01;28.60;56.50
45868;DHT22;31582;45.490;7.860;2022-07-03T20:10:34;28.60;56.40
45868;DHT22;31582;45.490;7.860;2022-07-03T20:13:01;28.50;59.10
45868;DHT22;31582;45.490;7.860;2022-07-03T20:15:28;28.40;62.40
45868;DHT22;31582;45.490;7.860;2022-07-03T20:17:55;28.20;62.90
45868;DHT22;31582;45.490;7.860;2022-07-03T20:20:43;28.00;62.90
45868;DHT22;31582;45.490;7.860;2022-07-03T20:23:10;27.90;62.10
45868;DHT22;31582;45.490;7.860;2022-07-03T20:25:37;27.80;61.30
45868;DHT22;31582;45.490;7.860;2022-07-03T20:28:04;27.80;59.80
45868;DHT22;31582;45.490;7.860;2022-07-03T20:30:32;27.80;59.40
45868;DHT22;31582;45.490;7.860;2022-07-03T20:32:59;27.80;59.30
45868;DHT22;31582;45.490;7.860;2022-07-03T20:35:27;27.70;59.40
45868;DHT22;31582;45.490;7.860;2022-07-03T20:37:55;27.70;60.20
45868;DHT22;31582;45.490;7.860;2022-07-03T20:40:23;27.70;61.00
45868;DHT22;31582;45.490;7.860;2022-07-03T20:42:50;27.60;62.50
45868;DHT22;31582;45.490;7.860;2022-07-03T20:45:17;27.40;63.50
45868;DHT22;31582;45.490;7.860;2022-07-03T20:47:44;27.40;64.50
45868;DHT22;31582;45.490;7.860;2022-07-03T20:50:11;27.30;64.50
45868;DHT22;31582;45.490;7.860;2022-07-03T20:52:38;27.20;64.30
45868;DHT22;31582;45.490;7.860;2022-07-03T20:55:12;27.10;63.90
45868;DHT22;31582;45.490;7.860;2022-07-03T20:57:39;27.10;63.60
45868;DHT22;31582;45.490;7.860;2022-07-03T21:00:06;27.10;63.50
45868;DHT22;31582;45.490;7.860;2022-07-03T21:02:33;27.00;63.10
45868;DHT22;31582;45.490;7.860;2022-07-03T21:05:03;27.00;62.90
45868;DHT22;31582;45.490;7.860;2022-07-03T21:07:30;27.00;62.90
45868;DHT22;31582;45.490;7.860;2022-07-03T21:09:57;27.00;62.40
45868;DHT22;31582;45.490;7.860;2022-07-03T21:12:29;27.00;62.40
45868;DHT22;31582;45.490;7.860;2022-07-03T21:14:56;26.90;63.00
45868;DHT22;31582;45.490;7.860;2022-07-03T21:17:23;26.90;63.10
45868;DHT22;31582;45.490;7.860;2022-07-03T21:19:50;26.80;62.70
45868;DHT22;31582;45.490;7.860;2022-07-03T21:22:17;26.80;63.10
45868;DHT22;31582;45.490;7.860;2022-07-03T21:24:44;26.80;63.90
45868;DHT22;31582;45.490;7.860;2022-07-03T21:27:11;26.80;64.90
45868;DHT22;31582;45.490;7.860;2022-07-03T21:29:40;26.80;63.60
45868;DHT22;31582;45.490;7.860;2022-07-03T21:32:07;26.80;61.00
45868;DHT22;31582;45.490;7.860;2022-07-03T21:34:34;26.80;60.00
45868;DHT22;31582;45.490;7.860;2022-07-03T21:37:01;26.80;59.60
45868;DHT22;31582;45.490;7.860;2022-07-03T21:39:28;26.80;59.30
45868;DHT22;31582;45.490;7.860;2022-07-03T21:41:55;26.90;59.70
45868;DHT22;31582;45.490;7.860;2022-07-03T21:44:22;26.90;60.30
45868;DHT22;31582;45.490;7.860;2022-07-03T21:46:49;26.80;60.80
45868;DHT22;31582;45.490;7.860;2022-07-03T21:49:17;26.80;60.00
45868;DHT22;31582;45.490;7.860;2022-07-03T21:51:45;26.80;60.60
45868;DHT22;31582;45.490;7.860;2022-07-03T21:54:13;26.70;60.00
45868;DHT22;31582;45.490;7.860;2022-07-03T21:56:40;26.70;58.10
45868;DHT22;31582;45.490;7.860;2022-07-03T21:59:07;26.80;58.60
45868;DHT22;31582;45.490;7.860;2022-07-03T22:01:34;26.80;58.20
45868;DHT22;31582;45.490;7.860;2022-07-03T22:04:01;26.80;57.90
45868;DHT22;31582;45.490;7.860;2022-07-03T22:06:28;26.80;58.00
45868;DHT22;31582;45.490;7.860;2022-07-03T22:08:55;26.80;58.10
45868;DHT22;31582;45.490;7.860;2022-07-03T22:11:22;26.70;58.50
45868;DHT22;31582;45.490;7.860;2022-07-03T22:13:49;26.70;59.50
45868;DHT22;31582;45.490;7.860;2022-07-03T22:16:16;26.60;60.50
45868;DHT22;31582;45.490;7.860;2022-07-03T22:18:43;26.60;60.90
45868;DHT22;31582;45.490;7.860;2022-07-03T22:21:09;26.50;61.00
45868;DHT22;31582;45.490;7.860;2022-07-03T22:23:36;26.50;61.20
45868;DHT22;31582;45.490;7.860;2022-07-03T22:26:03;26.40;61.20
45868;DHT22;31582;45.490;7.860;2022-07-03T22:28:30;26.40;61.80
45868;DHT22;31582;45.490;7.860;2022-07-03T22:30:56;26.30;62.80
45868;DHT22;31582;45.490;7.860;2022-07-03T22:33:42;26.30;63.00
45868;DHT22;31582;45.490;7.860;2022-07-03T22:36:09;26.20;63.30
45868;DHT22;31582;45.490;7.860;2022-07-03T22:38:36;26.20;63.40
45868;DHT22;31582;45.490;7.860;2022-07-03T22:41:02;26.10;63.90
45868;DHT22;31582;45.490;7.860;2022-07-03T22:43:29;26.00;63.90
45868;DHT22;31582;45.490;7.860;2022-07-03T22:45:56;26.00;63.80
45868;DHT22;31582;45.490;7.860;2022-07-03T22:48:23;25.90;63.50
45868;DHT22;31582;45.490;7.860;2022-07-03T22:50:49;25.80;62.80
45868;DHT22;31582;45.490;7.860;2022-07-03T22:53:16;25.80;62.30
45868;DHT22;31582;45.490;7.860;2022-07-03T22:55:43;25.80;61.90
45868;DHT22;31582;45.490;7.860;2022-07-03T22:58:10;25.80;61.30
45868;DHT22;31582;45.490;7.860;2022-07-03T23:00:37;25.80;61.30
45868;DHT22;31582;45.490;7.860;2022-07-03T23:03:04;25.80;61.20
45868;DHT22;31582;45.490;7.860;2022-07-03T23:05:31;25.90;60.50
45868;DHT22;31582;45.490;7.860;2022-07-03T23:07:58;25.90;60.20
45868;DHT22;31582;45.490;7.860;2022-07-03T23:10:25;25.90;60.40
45868;DHT22;31582;45.490;7.860;2022-07-03T23:12:52;25.90;60.30
45868;DHT22;31582;45.490;7.860;2022-07-03T23:15:18;25.90;60.20
45868;DHT22;31582;45.490;7.860;2022-07-03T23:17:45;25.90;60.00
45868;DHT22;31582;45.490;7.860;2022-07-03T23:20:12;25.90;59.90
45868;DHT22;31582;45.490;7.860;2022-07-03T23:22:39;25.90;59.80
45868;DHT22;31582;45.490;7.860;2022-07-03T23:25:05;25.90;59.60
45868;DHT22;31582;45.490;7.860;2022-07-03T23:27:32;25.90;59.80
45868;DHT22;31582;45.490;7.860;2022-07-03T23:29:59;25.80;59.90
45868;DHT22;31582;45.490;7.860;2022-07-03T23:32:26;25.80;59.50
45868;DHT22;31582;45.490;7.860;2022-07-03T23:34:53;25.80;59.20
45868;DHT22;31582;45.490;7.860;2022-07-03T23:37:19;25.80;58.80
45868;DHT22;31582;45.490;7.860;2022-07-03T23:40:06;25.70;59.00
45868;DHT22;31582;45.490;7.860;2022-07-03T23:42:33;25.70;59.30
45868;DHT22;31582;45.490;7.860;2022-07-03T23:45:00;25.70;59.30
45868;DHT22;31582;45.490;7.860;2022-07-03T23:47:27;25.60;59.50
45868;DHT22;31582;45.490;7.860;2022-07-03T23:49:54;25.50;59.70
45868;DHT22;31582;45.490;7.860;2022-07-03T23:52:39;25.50;60.00
45868;DHT22;31582;45.490;7.860;2022-07-03T23:55:07;25.40;60.00
45868;DHT22;31582;45.490;7.860;2022-07-03T23:57:34;25.40;59.80
